Time;durP1;ratioP1;P1;durP2;ratioP2;P2;SDS_P1;SDS_P2;PMS_P1;PMS_P2;Temp;Humidity;BMP_temperature;BMP_pressure;BME280_temperature;BME280_humidity;BME280_pressure;Samples;Min_cycle;Max_cycle;Signal;HPM_P1;HPM_P2
2022/03/29 00:02:24;;;;;;;26.58;16.35;;;;;;;11.29;58.82;101549.22;5078379;28;20043;-61
2022/03/29 00:04:49;;;;;;;25.42;16.58;;;;;;;11.34;58.94;101556.00;5055003;28;20111;-62
2022/03/29 00:07:15;;;;;;;29.70;17.05;;;;;;;11.35;59.37;101547.09;5111294;28;20024;-61
2022/03/29 00:09:40;;;;;;;29.60;17.65;;;;;;;11.39;59.51;101545.13;5083481;28;20032;-61
2022/03/29 00:12:09;;;;;;;25.60;16.92;;;;;;;11.34;59.66;101552.50;5062324;28;20028;-61
2022/03/29 00:14:35;;;;;;;25.75;16.98;;;;;;;11.34;59.82;101542.69;5094055;28;20059;-61
2022/03/29 00:17:01;;;;;;;28.08;18.33;;;;;;;11.18;60.17;101539.16;5084490;28;20040;-62
2022/03/29 00:19:27;;;;;;;30.02;17.63;;;;;;;11.19;60.32;101538.22;5089542;28;20130;-61
2022/03/29 00:21:53;;;;;;;31.75;18.33;;;;;;;11.19;60.30;101537.34;5076865;28;20497;-61
2022/03/29 00:24:18;;;;;;;27.80;17.75;;;;;;;10.97;61.33;101540.31;5042571;28;20128;-61
2022/03/29 00:26:44;;;;;;;29.95;18.35;;;;;;;10.98;61.14;101534.06;5098551;28;20394;-61
2022/03/29 00:29:09;;;;;;;30.50;17.88;;;;;;;11.12;60.62;101531.50;5092737;28;20118;-62
2022/03/29 00:31:35;;;;;;;30.58;18.75;;;;;;;11.01;61.22;101520.59;5068932;28;20078;-62
2022/03/29 00:34:03;;;;;;;27.90;17.98;;;;;;;10.96;61.15;101528.81;5100224;28;20558;-62
2022/03/29 00:36:29;;;;;;;30.17;17.35;;;;;;;11.06;61.22;101530.03;5091927;28;20036;-61
2022/03/29 00:38:54;;;;;;;26.15;16.80;;;;;;;10.96;60.92;101519.97;5076250;28;20505;-61
2022/03/29 00:41:20;;;;;;;28.70;18.70;;;;;;;10.73;61.16;101502.56;5079648;28;20038;-61
2022/03/29 00:43:46;;;;;;;35.33;18.38;;;;;;;10.75;61.16;101516.66;5094831;28;20098;-62
2022/03/29 00:46:13;;;;;;;27.38;18.92;;;;;;;10.78;61.44;101505.84;5093615;28;20104;-61
2022/03/29 00:48:39;;;;;;;31.27;18.45;;;;;;;10.72;61.54;101512.34;5074196;28;20494;-61
2022/03/29 00:51:07;;;;;;;27.95;19.63;;;;;;;10.62;62.11;101492.50;5058449;28;20062;-61
2022/03/29 00:53:35;;;;;;;28.65;18.42;;;;;;;10.72;61.85;101495.53;5096590;28;20140;-61
2022/03/29 00:56:02;;;;;;;31.15;19.98;;;;;;;10.65;62.03;101500.31;5096793;28;20103;-62
2022/03/29 00:58:27;;;;;;;30.83;18.83;;;;;;;10.65;61.71;101495.00;5093206;28;20080;-61
2022/03/29 01:00:58;;;;;;;31.10;19.02;;;;;;;10.67;61.89;101493.09;5096838;28;20031;-61
2022/03/29 01:03:24;;;;;;;31.73;19.55;;;;;;;10.63;61.66;101483.56;5095852;28;20037;-61
2022/03/29 01:05:49;;;;;;;27.50;18.98;;;;;;;10.55;61.87;101468.00;5105459;28;20476;-61
2022/03/29 01:08:17;;;;;;;29.55;19.17;;;;;;;10.51;61.98;101481.56;5091938;28;20042;-61
2022/03/29 01:10:45;;;;;;;30.75;20.05;;;;;;;10.64;61.71;101480.81;5096876;28;20023;-61
2022/03/29 01:13:11;;;;;;;28.85;19.23;;;;;;;10.52;62.17;101481.47;5077443;28;20031;-61
2022/03/29 01:15:41;;;;;;;29.45;19.63;;;;;;;10.43;62.00;101468.66;5074662;28;20016;-61
2022/03/29 01:18:07;;;;;;;33.33;19.80;;;;;;;10.66;61.57;101475.44;5093095;28;20477;-61
2022/03/29 01:20:33;;;;;;;30.40;20.88;;;;;;;10.42;62.23;101469.63;5067966;28;20076;-61
2022/03/29 01:23:00;;;;;;;27.10;19.38;;;;;;;10.57;61.86;101476.78;5108479;28;20031;-61
2022/03/29 01:25:38;;;;;;;36.15;20.63;;;;;;;10.54;61.96;101478.75;5092073;28;20023;-61
2022/03/29 01:28:05;;;;;;;29.13;20.15;;;;;;;10.45;61.62;101464.13;5095109;28;20406;-61
2022/03/29 01:30:31;;;;;;;28.98;20.77;;;;;;;10.40;62.30;101468.81;5097157;28;20047;-61
2022/03/29 01:32:59;;;;;;;35.13;20.60;;;;;;;10.21;63.29;101472.41;5106313;28;20050;-61
2022/03/29 01:35:25;;;;;;;28.73;20.63;;;;;;;10.38;62.85;101471.59;5076325;28;20024;-61
2022/03/29 01:37:52;;;;;;;29.55;21.65;;;;;;;10.32;62.76;101471.03;5090697;28;20548;-61
2022/03/29 01:40:20;;;;;;;32.00;21.75;;;;;;;10.35;63.17;101462.88;5082573;28;20020;-61
2022/03/29 01:42:50;;;;;;;31.77;21.77;;;;;;;10.28;63.18;101464.16;5072367;28;20486;-61
2022/03/29 01:45:16;;;;;;;34.30;22.48;;;;;;;10.16;63.19;101460.28;5098136;28;20024;-61
2022/03/29 01:47:42;;;;;;;33.40;22.85;;;;;;;10.06;64.24;101454.59;5076890;28;20390;-61
2022/03/29 01:50:10;;;;;;;33.80;22.80;;;;;;;10.12;64.16;101451.63;5082029;28;20019;-61
2022/03/29 01:52:40;;;;;;;33.25;23.83;;;;;;;10.07;64.49;101447.47;5091306;28;20798;-61
2022/03/29 01:55:08;;;;;;;32.58;23.92;;;;;;;9.95;64.48;101449.81;5078792;28;20020;-61
2022/03/29 01:57:35;;;;;;;34.58;23.92;;;;;;;9.95;65.12;101443.66;5087500;28;20487;-61
2022/03/29 02:00:34;;;;;;;30.80;23.80;;;;;;;9.92;65.04;101442.00;5078532;28;20085;-61
2022/03/29 02:02:53;;;;;;;35.28;24.92;;;;;;;9.77;65.37;101438.34;5100354;28;20525;-61
2022/03/29 02:05:22;;;;;;;30.08;24.55;;;;;;;9.70;66.38;101436.03;5078866;28;20043;-61
2022/03/29 02:07:50;;;;;;;34.22;25.65;;;;;;;9.87;66.67;101433.41;5113931;28;20024;-61
2022/03/29 02:10:21;;;;;;;35.15;25.52;;;;;;;9.96;66.56;101430.28;5099697;28;20020;-61
2022/03/29 02:12:50;;;;;;;34.95;25.10;;;;;;;9.87;66.06;101421.94;5095962;28;20028;-61
2022/03/29 02:15:16;;;;;;;35.28;25.80;;;;;;;9.89;66.42;101428.88;5068891;28;20024;-61
2022/03/29 02:17:43;;;;;;;33.47;25.52;;;;;;;9.88;66.99;101420.97;5096060;28;20036;-61
2022/03/29 02:20:09;;;;;;;34.38;24.77;;;;;;;9.91;66.47;101426.13;5099055;28;20047;-61
2022/03/29 02:22:37;;;;;;;37.22;26.77;;;;;;;9.97;66.47;101415.19;5093295;28;20040;-61
2022/03/29 02:25:04;;;;;;;39.88;26.90;;;;;;;9.83;66.62;101415.06;5108548;28;20019;-61
2022/03/29 02:27:29;;;;;;;35.03;26.30;;;;;;;9.82;66.81;101408.00;5102289;28;20485;-61
2022/03/29 02:29:55;;;;;;;34.00;25.88;;;;;;;9.91;66.50;101407.53;5094533;28;20027;-62
2022/03/29 02:32:20;;;;;;;43.47;26.52;;;;;;;9.90;66.59;101400.50;5075701;28;20055;-61
2022/03/29 02:34:46;;;;;;;38.30;26.58;;;;;;;9.74;67.15;101401.31;5084976;28;20535;-61
2022/03/29 02:37:13;;;;;;;35.13;26.80;;;;;;;9.71;67.46;101395.28;5078116;28;20126;-61
2022/03/29 02:39:38;;;;;;;38.58;28.48;;;;;;;9.58;67.89;101391.53;5085552;28;20028;-61
2022/03/29 02:42:06;;;;;;;39.75;29.25;;;;;;;9.60;67.66;101395.81;5112635;28;20502;-61
2022/03/29 02:44:31;;;;;;;38.25;28.88;;;;;;;9.57;68.32;101389.81;5106163;28;20027;-61
2022/03/29 02:46:57;;;;;;;40.30;29.25;;;;;;;9.64;68.22;101389.41;5094098;28;20043;-61
2022/03/29 02:49:24;;;;;;;39.63;29.58;;;;;;;9.58;68.43;101391.53;5065085;28;20075;-61
2022/03/29 02:51:52;;;;;;;38.38;28.55;;;;;;;9.57;68.54;101388.00;5105342;28;20110;-61
2022/03/29 02:54:19;;;;;;;40.22;29.25;;;;;;;9.67;68.08;101375.97;5096559;28;20439;-61
2022/03/29 02:56:48;;;;;;;40.58;30.25;;;;;;;9.63;68.27;101369.09;5095392;28;20130;-61
2022/03/29 02:59:14;;;;;;;39.20;29.60;;;;;;;9.63;68.15;101362.94;5100682;28;20023;-61
2022/03/29 03:01:39;;;;;;;41.80;30.38;;;;;;;9.61;68.15;101367.47;5102911;28;20026;-61
2022/03/29 03:04:05;;;;;;;40.08;30.50;;;;;;;9.53;68.33;101357.25;5094187;28;20020;-61
2022/03/29 03:06:31;;;;;;;42.13;29.73;;;;;;;9.73;68.21;101366.81;5078036;28;20024;-61
2022/03/29 03:08:56;;;;;;;40.33;29.95;;;;;;;9.73;68.13;101370.34;5085689;28;20019;-61
2022/03/29 03:11:22;;;;;;;47.75;30.75;;;;;;;9.61;68.40;101362.16;5095143;28;20436;-61
2022/03/29 03:13:48;;;;;;;41.67;31.25;;;;;;;9.62;68.28;101359.44;5088723;28;20024;-61
2022/03/29 03:16:13;;;;;;;41.08;30.83;;;;;;;9.59;68.63;101364.91;5104236;28;20031;-61
2022/03/29 03:18:39;;;;;;;40.10;30.95;;;;;;;9.53;68.85;101365.22;5081961;28;20409;-61
2022/03/29 03:21:04;;;;;;;43.40;31.67;;;;;;;9.52;68.55;101348.41;5065116;28;20032;-61
2022/03/29 03:23:30;;;;;;;45.00;32.38;;;;;;;9.57;68.50;101352.63;5088264;28;20039;-61
2022/03/29 03:25:55;;;;;;;46.55;32.47;;;;;;;9.48;68.99;101346.00;5107936;28;20091;-61
2022/03/29 03:28:21;;;;;;;47.85;33.63;;;;;;;9.46;68.94;101345.19;5097676;28;20020;-61
2022/03/29 03:30:48;;;;;;;43.80;32.50;;;;;;;9.50;69.07;101338.78;5076564;28;20525;-61
2022/03/29 03:33:13;;;;;;;44.58;34.35;;;;;;;9.46;69.30;101339.88;5095954;28;20032;-61
2022/03/29 03:35:41;;;;;;;45.70;34.05;;;;;;;9.30;69.88;101342.47;5093210;28;20043;-61
2022/03/29 03:38:07;;;;;;;47.10;34.97;;;;;;;9.23;70.24;101338.38;5111224;28;20027;-61
2022/03/29 03:40:33;;;;;;;46.15;33.65;;;;;;;9.23;70.32;101335.72;5079020;28;20020;-61
2022/03/29 03:43:00;;;;;;;46.45;35.88;;;;;;;9.14;70.55;101342.34;5095271;28;20386;-61
2022/03/29 03:45:26;;;;;;;48.10;35.15;;;;;;;9.22;70.73;101331.34;5107220;28;20027;-61
2022/03/29 03:47:52;;;;;;;46.10;35.33;;;;;;;9.15;70.51;101337.88;5110118;28;20042;-61
2022/03/29 03:50:17;;;;;;;44.83;34.60;;;;;;;9.14;70.49;101336.19;5069877;28;20035;-61
2022/03/29 03:52:43;;;;;;;51.35;37.25;;;;;;;9.08;70.86;101342.66;5093675;28;20057;-61
2022/03/29 03:55:09;;;;;;;49.45;35.67;;;;;;;9.02;70.77;101341.16;5099293;28;20024;-61
2022/03/29 03:57:35;;;;;;;47.55;37.03;;;;;;;9.06;70.78;101339.22;5083279;28;20040;-61
2022/03/29 04:00:01;;;;;;;52.97;37.05;;;;;;;9.01;70.94;101336.78;5097590;28;20073;-61
2022/03/29 04:02:26;;;;;;;48.78;36.78;;;;;;;9.03;70.67;101323.44;5100950;28;20032;-61
2022/03/29 04:04:53;;;;;;;52.70;38.22;;;;;;;9.03;71.05;101323.44;5093598;28;20023;-61
2022/03/29 04:07:18;;;;;;;53.50;38.58;;;;;;;8.94;70.77;101318.56;5111328;28;20020;-61
2022/03/29 04:09:44;;;;;;;50.35;38.38;;;;;;;9.03;71.08;101315.47;5105932;28;20023;-61
2022/03/29 04:12:13;;;;;;;49.60;38.58;;;;;;;9.00;71.33;101303.25;5078490;28;20051;-61
2022/03/29 04:14:38;;;;;;;48.80;38.60;;;;;;;8.96;71.32;101308.75;5104075;28;20662;-62
2022/03/29 04:17:04;;;;;;;52.60;39.42;;;;;;;8.91;71.54;101318.72;5085173;28;20106;-61
2022/03/29 04:19:30;;;;;;;53.28;38.63;;;;;;;8.88;71.68;101314.44;5111104;28;20023;-61
2022/03/29 04:21:56;;;;;;;53.00;39.92;;;;;;;8.95;71.18;101307.91;5091146;28;20555;-61
2022/03/29 04:24:23;;;;;;;51.58;39.88;;;;;;;8.89;71.56;101305.56;5089002;28;20054;-61
2022/03/29 04:26:48;;;;;;;56.03;39.80;;;;;;;9.00;71.18;101289.97;5091714;28;20022;-61
2022/03/29 04:29:14;;;;;;;54.83;40.67;;;;;;;8.93;71.44;101287.69;5077543;28;20395;-61
2022/03/29 04:31:39;;;;;;;53.63;40.00;;;;;;;8.90;71.46;101293.16;5109204;28;20051;-61
2022/03/29 04:34:05;;;;;;;52.38;40.95;;;;;;;8.80;71.60;101287.44;5096953;28;20038;-61
2022/03/29 04:36:33;;;;;;;54.78;39.95;;;;;;;8.73;71.70;101278.91;5105423;28;20511;-61
2022/03/29 04:39:01;;;;;;;55.38;40.47;;;;;;;8.74;71.88;101285.94;5088146;28;20068;-61
2022/03/29 04:41:26;;;;;;;57.20;41.55;;;;;;;8.71;71.85;101274.63;5078418;28;20039;-61
2022/03/29 04:43:52;;;;;;;55.85;40.75;;;;;;;8.69;71.74;101282.66;5082912;28;20110;-64
2022/03/29 04:46:20;;;;;;;54.30;40.72;;;;;;;8.69;72.01;101292.41;5084337;28;20031;-61
2022/03/29 04:48:46;;;;;;;55.97;43.00;;;;;;;8.63;72.36;101283.78;5103078;28;20497;-61
2022/03/29 04:51:12;;;;;;;55.35;42.60;;;;;;;8.55;72.59;101285.09;5093696;28;20028;-61
2022/03/29 04:53:40;;;;;;;56.03;44.75;;;;;;;8.54;72.48;101272.78;5105653;28;20024;-61
2022/03/29 04:56:05;;;;;;;57.33;43.40;;;;;;;8.44;72.67;101279.44;5093164;28;20051;-61
2022/03/29 04:58:31;;;;;;;59.47;44.22;;;;;;;8.46;72.72;101270.47;5094618;28;20393;-62
2022/03/29 05:00:58;;;;;;;57.08;44.45;;;;;;;8.42;72.85;101279.53;5092910;28;20027;-61
2022/03/29 05:03:26;;;;;;;60.25;43.85;;;;;;;8.43;72.95;101275.94;5085736;28;20455;-62
2022/03/29 05:05:55;;;;;;;59.65;44.58;;;;;;;8.35;73.38;101275.38;5092403;28;20027;-61
2022/03/29 05:08:20;;;;;;;57.05;43.35;;;;;;;8.38;73.48;101277.91;5099694;28;20023;-61
2022/03/29 05:10:47;;;;;;;57.50;43.33;;;;;;;8.51;72.86;101272.94;5086845;28;20394;-61
2022/03/29 05:13:15;;;;;;;57.05;42.88;;;;;;;8.45;72.84;101268.78;5084772;28;20375;-61
2022/03/29 05:15:41;;;;;;;55.80;44.03;;;;;;;8.49;72.68;101267.69;5097760;28;20031;-61
2022/03/29 05:18:07;;;;;;;56.97;44.42;;;;;;;8.48;72.73;101271.28;5088683;28;20128;-61
2022/03/29 05:20:35;;;;;;;55.40;44.60;;;;;;;8.54;72.42;101270.13;5092480;28;20032;-61
2022/03/29 05:23:06;;;;;;;60.35;45.97;;;;;;;8.50;72.53;101266.78;5088630;28;20114;-61
2022/03/29 05:25:33;;;;;;;60.00;45.75;;;;;;;8.55;72.44;101266.53;5075436;28;20024;-61
2022/03/29 05:27:59;;;;;;;58.15;44.63;;;;;;;8.40;72.79;101265.47;5074588;28;20047;-61
2022/03/29 05:30:25;;;;;;;56.33;44.33;;;;;;;8.48;72.95;101267.78;5084130;28;20028;-62
2022/03/29 05:32:51;;;;;;;57.00;46.45;;;;;;;8.39;72.91;101271.72;5107348;28;20042;-61
2022/03/29 05:35:17;;;;;;;59.70;44.28;;;;;;;8.37;73.27;101265.59;5074750;28;20024;-61
2022/03/29 05:37:43;;;;;;;65.00;46.83;;;;;;;8.37;73.25;101268.25;5074038;28;20024;-61
2022/03/29 05:40:10;;;;;;;62.47;46.60;;;;;;;8.37;73.10;101266.44;5103988;28;20085;-61
2022/03/29 05:42:43;;;;;;;63.45;49.15;;;;;;;8.26;73.32;101259.94;5077899;28;20043;-61
2022/03/29 05:45:11;;;;;;;63.80;48.22;;;;;;;8.24;73.95;101265.31;5112470;28;20096;-61
2022/03/29 05:50:22;;;;;;;65.13;49.20;;;;;;;8.09;74.02;101256.28;5086787;28;20039;-61
2022/03/29 05:52:47;;;;;;;70.07;49.70;;;;;;;8.21;74.13;101262.81;5088721;28;20055;-62
2022/03/29 05:55:13;;;;;;;68.97;51.33;;;;;;;8.18;74.43;101262.94;5101389;28;20039;-61
2022/03/29 05:57:38;;;;;;;74.07;52.85;;;;;;;8.00;75.13;101272.59;5059407;28;20028;-61
2022/03/29 06:00:08;;;;;;;70.90;52.33;;;;;;;7.91;75.41;101260.66;5093068;28;20498;-61
2022/03/29 06:02:34;;;;;;;74.97;54.00;;;;;;;8.07;75.03;101263.44;5095567;28;20475;-61
2022/03/29 06:04:59;;;;;;;75.55;52.05;;;;;;;8.12;75.03;101263.25;5094942;28;20035;-61
2022/03/29 06:07:25;;;;;;;76.68;53.28;;;;;;;8.05;75.55;101267.09;5100589;28;20509;-61
2022/03/29 06:09:51;;;;;;;77.13;54.55;;;;;;;8.06;75.68;101274.09;5082892;28;20085;-62
2022/03/29 06:12:24;;;;;;;78.75;54.25;;;;;;;8.07;75.86;101260.78;5084697;28;20032;-61
2022/03/29 06:14:49;;;;;;;79.90;54.38;;;;;;;7.97;76.53;101262.13;5114122;28;20042;-61
2022/03/29 06:17:15;;;;;;;79.82;55.22;;;;;;;7.92;76.67;101262.34;5091211;28;20032;-62
2022/03/29 06:19:42;;;;;;;81.03;54.63;;;;;;;8.03;76.37;101267.16;5114324;28;20027;-61
2022/03/29 06:22:10;;;;;;;80.18;55.90;;;;;;;8.08;76.67;101267.78;5093409;28;20019;-61
2022/03/29 06:24:38;;;;;;;83.53;55.83;;;;;;;8.07;76.59;101258.13;5078244;28;20034;-61
2022/03/29 06:27:04;;;;;;;87.07;57.35;;;;;;;8.14;76.29;101261.34;5100594;28;20122;-61
2022/03/29 06:29:30;;;;;;;85.15;57.30;;;;;;;8.09;76.58;101261.59;5098229;28;20475;-61
2022/03/29 06:31:58;;;;;;;82.75;56.40;;;;;;;8.06;76.80;101259.09;5078204;28;20521;-61
2022/03/29 06:34:26;;;;;;;83.25;56.40;;;;;;;8.00;76.81;101262.00;5079796;28;20440;-61
2022/03/29 06:36:53;;;;;;;85.78;57.50;;;;;;;7.94;77.33;101254.31;5103296;28;20035;-61
2022/03/29 06:39:21;;;;;;;82.88;56.90;;;;;;;8.07;76.82;101255.50;5090968;28;20031;-61
2022/03/29 06:41:46;;;;;;;83.18;56.47;;;;;;;8.12;77.14;101258.78;5094570;28;20475;-61
2022/03/29 06:44:14;;;;;;;90.13;59.78;;;;;;;8.09;77.17;101260.69;5078724;28;20043;-61
2022/03/29 06:46:40;;;;;;;81.72;56.22;;;;;;;8.19;77.05;101249.63;5089057;28;20028;-62
2022/03/29 06:49:06;;;;;;;85.50;56.95;;;;;;;8.18;77.06;101262.94;5076742;28;20039;-61
2022/03/29 06:51:36;;;;;;;86.80;58.35;;;;;;;8.05;77.48;101264.44;5092965;28;20043;-61
2022/03/29 06:54:05;;;;;;;88.90;58.85;;;;;;;8.07;77.78;101262.59;5108284;28;20107;-61
2022/03/29 06:56:31;;;;;;;84.45;56.83;;;;;;;8.18;77.52;101261.16;5077795;28;20023;-61
2022/03/29 06:58:57;;;;;;;84.63;57.75;;;;;;;8.08;77.28;101240.44;5087413;28;20024;-61
2022/03/29 07:01:23;;;;;;;90.40;60.53;;;;;;;8.22;77.35;101253.91;5093280;28;20028;-61
2022/03/29 07:03:51;;;;;;;88.15;57.78;;;;;;;8.30;76.63;101250.91;5087619;28;20062;-61
2022/03/29 07:06:16;;;;;;;88.72;57.30;;;;;;;8.18;77.10;101239.09;5094439;28;20163;-61
2022/03/29 07:11:42;;;;;;;88.78;57.80;;;;;;;8.24;77.02;101254.72;5069990;28;20048;-61
2022/03/29 07:14:08;;;;;;;90.45;59.55;;;;;;;8.10;77.30;101246.53;5092116;28;20447;-61
2022/03/29 07:16:38;;;;;;;92.72;60.85;;;;;;;8.20;77.22;101243.38;5081294;28;20015;-61
2022/03/29 07:19:03;;;;;;;94.63;61.20;;;;;;;8.25;77.06;101245.81;5081806;28;20405;-61
2022/03/29 07:21:33;;;;;;;91.03;58.33;;;;;;;8.31;76.99;101248.19;5094222;28;20040;-61
2022/03/29 07:23:58;;;;;;;92.40;59.75;;;;;;;8.27;77.01;101257.22;5091880;28;20035;-61
2022/03/29 07:26:24;;;;;;;98.03;61.03;;;;;;;8.25;77.10;101258.22;5080156;28;20028;-61
2022/03/29 07:28:50;;;;;;;95.55;60.25;;;;;;;8.23;77.87;101260.94;5096543;28;20466;-61
2022/03/29 07:31:16;;;;;;;98.25;60.95;;;;;;;8.19;77.82;101262.88;5083084;28;20051;-61
2022/03/29 07:33:42;;;;;;;95.20;58.05;;;;;;;8.24;77.24;101262.66;5088707;28;20477;-61
2022/03/29 07:36:08;;;;;;;96.82;59.17;;;;;;;8.23;77.63;101266.22;5087761;28;20036;-60
2022/03/29 07:38:33;;;;;;;95.50;60.03;;;;;;;8.16;77.94;101264.81;5096633;28;20027;-60
2022/03/29 07:40:59;;;;;;;97.18;58.88;;;;;;;8.14;78.13;101270.16;5073615;28;20039;-61
2022/03/29 07:43:27;;;;;;;96.28;60.30;;;;;;;8.04;78.87;101276.81;5079255;28;20057;-61
2022/03/29 07:45:52;;;;;;;95.50;60.25;;;;;;;8.15;78.57;101276.34;5102725;28;20043;-61
2022/03/29 07:48:18;;;;;;;94.72;59.92;;;;;;;8.09;78.92;101279.25;5106509;28;20231;-61
2022/03/29 07:50:43;;;;;;;102.13;59.85;;;;;;;8.23;78.35;101287.41;5082092;28;20471;-61
2022/03/29 07:53:09;;;;;;;96.15;58.78;;;;;;;8.17;78.65;101293.88;5079123;28;20027;-61
2022/03/29 07:55:40;;;;;;;96.22;59.47;;;;;;;8.13;78.65;101291.44;5080757;28;20024;-61
2022/03/29 07:58:06;;;;;;;97.72;58.00;;;;;;;8.17;78.56;101291.22;5099639;28;20031;-61
2022/03/29 08:00:32;;;;;;;96.45;60.42;;;;;;;8.24;78.26;101280.38;5083633;28;20059;-61
2022/03/29 08:03:08;;;;;;;95.63;59.25;;;;;;;8.24;78.25;101288.31;5096327;28;20823;-61
2022/03/29 08:05:34;;;;;;;100.25;58.88;;;;;;;8.29;78.32;101284.47;5078150;28;20116;-60
2022/03/29 08:08:01;;;;;;;93.80;58.13;;;;;;;8.31;77.81;101281.78;5105855;28;20103;-60
2022/03/29 08:10:28;;;;;;;98.30;59.30;;;;;;;8.44;77.49;101284.72;5078774;28;20043;-61
2022/03/29 08:12:56;;;;;;;99.90;60.83;;;;;;;8.35;77.70;101283.34;5102447;28;20078;-61
2022/03/29 08:15:25;;;;;;;101.43;58.85;;;;;;;8.34;77.87;101277.19;5101620;28;20025;-62
2022/03/29 08:17:51;;;;;;;102.55;60.58;;;;;;;8.30;78.25;101275.63;5106521;28;20054;-61
2022/03/29 08:20:19;;;;;;;106.88;59.47;;;;;;;8.33;77.80;101264.03;5085924;28;20065;-61
2022/03/29 08:22:46;;;;;;;103.63;58.15;;;;;;;8.41;77.42;101267.19;5102976;28;20024;-61
2022/03/29 08:25:16;;;;;;;108.25;59.83;;;;;;;8.41;78.06;101260.13;5080447;28;20031;-61
2022/03/29 08:27:43;;;;;;;101.20;60.00;;;;;;;8.39;77.55;101261.97;5104679;28;20030;-61
2022/03/29 08:30:10;;;;;;;101.47;59.28;;;;;;;8.24;77.63;101245.91;5100301;28;20028;-61
2022/03/29 08:32:36;;;;;;;105.13;58.67;;;;;;;8.44;77.64;101264.38;5087305;28;20494;-61
2022/03/29 08:35:07;;;;;;;104.63;60.22;;;;;;;8.40;77.99;101271.63;5082799;28;20016;-61
2022/03/29 08:37:35;;;;;;;105.95;60.58;;;;;;;8.29;78.00;101265.94;5103743;28;20043;-61
2022/03/29 08:40:02;;;;;;;105.50;59.65;;;;;;;8.37;78.34;101263.78;5106867;28;20028;-61
2022/03/29 08:42:28;;;;;;;108.22;61.03;;;;;;;8.33;78.36;101264.03;5098853;28;20115;-61
2022/03/29 08:44:54;;;;;;;98.82;57.83;;;;;;;8.36;78.27;101264.72;5097520;28;20522;-63
2022/03/29 08:47:20;;;;;;;103.20;59.22;;;;;;;8.31;78.19;101266.72;5107250;28;20135;-61
2022/03/29 08:49:48;;;;;;;100.90;56.95;;;;;;;8.36;78.22;101277.13;5093501;28;20383;-61
2022/03/29 08:52:14;;;;;;;100.60;58.55;;;;;;;8.40;78.08;101274.28;5095509;28;20475;-61
2022/03/29 08:54:40;;;;;;;100.60;59.75;;;;;;;8.43;78.15;101273.28;5079123;28;20098;-61
2022/03/29 08:57:05;;;;;;;98.70;60.10;;;;;;;8.46;78.21;101266.97;5091513;28;20118;-61
2022/03/29 08:59:31;;;;;;;98.18;58.35;;;;;;;8.43;78.05;101272.44;5085286;28;20031;-61
2022/03/29 09:01:57;;;;;;;104.70;58.78;;;;;;;8.38;77.90;101252.31;5096052;28;20035;-61
2022/03/29 09:04:24;;;;;;;107.80;59.22;;;;;;;8.48;77.89;101273.94;5093812;28;20077;-61
2022/03/29 09:06:50;;;;;;;105.38;61.13;;;;;;;8.60;77.62;101273.34;5077684;28;20016;-61
2022/03/29 09:09:23;;;;;;;104.72;61.97;;;;;;;8.63;77.72;101262.59;5092061;28;20027;-62
2022/03/29 09:11:51;;;;;;;117.70;61.30;;;;;;;8.67;77.53;101265.09;5101103;28;20038;-61
2022/03/29 09:14:19;;;;;;;109.95;60.75;;;;;;;8.69;77.41;101260.56;5076347;28;20390;-61
2022/03/29 09:16:44;;;;;;;117.25;62.38;;;;;;;8.67;77.32;101258.00;5099424;28;20374;-61
2022/03/29 09:19:10;;;;;;;114.00;62.65;;;;;;;8.82;76.78;101251.06;5078651;28;20027;-61
2022/03/29 09:21:45;;;;;;;106.63;60.00;;;;;;;8.80;76.56;101235.25;5107455;28;20482;-61
2022/03/29 09:24:17;;;;;;;110.57;62.00;;;;;;;8.84;77.08;101250.06;5094969;28;20050;-61
2022/03/29 09:26:49;;;;;;;109.38;61.85;;;;;;;8.81;77.58;101250.22;5104127;28;20102;-61
2022/03/29 09:29:20;;;;;;;110.15;64.97;;;;;;;8.81;77.17;101252.00;5097479;28;20329;-61
2022/03/29 09:31:49;;;;;;;107.25;62.83;;;;;;;8.84;76.81;101252.72;5080896;28;20043;-61
2022/03/29 09:34:23;;;;;;;111.60;62.70;;;;;;;8.84;77.14;101254.50;5103425;28;20035;-61
2022/03/29 09:36:51;;;;;;;115.13;62.75;;;;;;;8.85;77.00;101253.56;5085186;28;20383;-61
2022/03/29 09:39:36;;;;;;;117.30;64.25;;;;;;;8.86;76.90;101256.16;5099852;28;20031;-61
2022/03/29 09:42:13;;;;;;;116.28;64.47;;;;;;;8.81;76.93;101236.09;5102499;28;20036;-61
2022/03/29 09:44:48;;;;;;;119.78;62.72;;;;;;;8.83;77.27;101237.75;5075375;28;20829;-61
2022/03/29 09:47:22;;;;;;;117.20;62.00;;;;;;;8.84;77.59;101238.59;5104434;28;20031;-61
2022/03/29 09:49:47;;;;;;;124.38;66.75;;;;;;;8.87;77.55;101230.50;5076998;28;20036;-61
2022/03/29 09:52:17;;;;;;;123.45;66.13;;;;;;;8.75;77.92;101224.00;5098381;28;20386;-61
2022/03/29 09:55:02;;;;;;;;;;;;;;;8.96;76.62;101227.38;5101391;28;20027;-61
2022/03/29 09:57:54;;;;;;;153.50;71.97;;;;;;;8.86;77.17;101227.00;5080151;28;19912;-61
2022/03/29 10:00:29;;;;;;;154.57;74.47;;;;;;;8.90;77.25;101221.53;5089588;28;20027;-61
2022/03/29 10:02:55;;;;;;;154.65;74.68;;;;;;;8.91;76.75;101233.84;5097794;28;20039;-61
2022/03/29 10:05:25;;;;;;;154.80;74.28;;;;;;;9.02;76.44;101220.91;5093866;28;20126;-61
2022/03/29 10:09:25;;;;;;;147.43;74.90;;;;;;;9.04;76.79;101211.09;5081369;28;20040;-61
2022/03/29 10:10:47;;;;;;;145.65;72.10;;;;;;;9.16;75.76;101207.78;5097889;28;20119;-61
2022/03/29 10:13:14;;;;;;;;;;;;;;;9.31;75.19;101209.66;5092788;28;20031;-61
2022/03/29 10:15:45;;;;;;;137.43;69.18;;;;;;;9.20;75.41;101203.19;5103904;28;19916;-61
2022/03/29 10:18:14;;;;;;;139.65;70.75;;;;;;;9.24;75.29;101208.28;5100282;28;20024;-61
2022/03/29 10:20:43;;;;;;;131.85;67.85;;;;;;;9.24;75.77;101202.97;5104663;28;20031;-61
2022/03/29 10:23:11;;;;;;;118.97;64.63;;;;;;;9.25;75.46;101202.00;5095358;28;20028;-61
2022/03/29 10:25:38;;;;;;;106.70;61.30;;;;;;;9.22;75.56;101204.81;5105643;28;20016;-60
2022/03/29 10:28:05;;;;;;;96.68;58.83;;;;;;;9.20;75.54;101192.56;5098622;28;20015;-61
2022/03/29 10:30:42;;;;;;;101.60;61.17;;;;;;;9.23;75.40;101200.38;5092386;28;20034;-61
2022/03/29 10:33:33;;;;;;;105.43;60.50;;;;;;;9.20;75.90;101206.69;5096400;28;20407;-61
2022/03/29 10:35:58;;;;;;;90.28;55.90;;;;;;;9.09;76.21;101203.75;5104709;28;20537;-61
2022/03/29 10:38:46;;;;;;;87.40;57.05;;;;;;;9.10;76.36;101197.50;5085194;28;20077;-61
2022/03/29 10:41:32;;;;;;;91.45;56.20;;;;;;;9.08;76.77;101192.25;5106030;28;20032;-61
2022/03/29 10:44:08;;;;;;;83.72;55.17;;;;;;;9.10;77.07;101200.16;5089301;28;20032;-61
2022/03/29 10:46:37;;;;;;;84.78;53.58;;;;;;;9.21;76.41;101194.31;5076948;28;20023;-61
2022/03/29 10:49:32;;;;;;;82.85;53.05;;;;;;;9.29;75.67;101181.47;5093431;28;20016;-61
2022/03/29 10:52:06;;;;;;;79.30;52.33;;;;;;;9.47;75.46;101179.63;5112691;28;20026;-61
2022/03/29 10:54:37;;;;;;;77.43;50.90;;;;;;;9.43;74.90;101178.94;5096191;28;20028;-61
2022/03/29 10:57:16;;;;;;;78.93;51.28;;;;;;;9.53;75.06;101182.00;5075645;28;20024;-61
2022/03/29 10:59:42;;;;;;;74.80;50.70;;;;;;;9.60;74.86;101172.75;5083304;28;20471;-61
2022/03/29 11:02:07;;;;;;;79.30;50.88;;;;;;;9.64;75.39;101168.97;5095393;28;20084;-61
2022/03/29 11:04:33;;;;;;;74.13;50.58;;;;;;;9.83;74.71;101170.66;5093828;28;20067;-61
2022/03/29 11:07:05;;;;;;;71.13;49.53;;;;;;;9.92;74.07;101165.69;5060980;28;20040;-61
2022/03/29 11:09:31;;;;;;;73.45;51.70;;;;;;;9.99;74.65;101159.06;5114071;28;20427;-61
2022/03/29 11:11:57;;;;;;;75.13;48.63;;;;;;;10.05;73.33;101155.22;5098763;28;20032;-61
2022/03/29 11:14:28;;;;;;;71.18;49.05;;;;;;;9.99;73.66;101156.41;5068439;28;20035;-61
2022/03/29 11:17:18;;;;;;;68.45;48.08;;;;;;;9.89;73.26;101143.75;5113547;28;20020;-61
2022/03/29 11:19:48;;;;;;;69.53;49.25;;;;;;;9.94;74.13;101147.88;5099272;28;20027;-61
2022/03/29 11:22:35;;;;;;;64.25;46.28;;;;;;;10.09;74.19;101147.91;5049435;28;20045;-61
2022/03/29 11:25:09;;;;;;;68.68;45.63;;;;;;;10.23;73.26;101151.53;5050684;28;20029;-61